• Join FlightAware (Why Join?)
  • Login
  • US Flag 
05:55PM EDT


 

Airport Tracker/Info


-or-


 

Live Flight TrackerFlight Track Log ✈ EJM53 ✈ 22-Aug-2013 ✈ KBED - KLGA

Flight Track Log - Related Links

Times and Time Zones

All times are in EDT time to prevent confusion due to time zone crossing. See the EJM53 flight status page for this flight to view local times or setup timezone preferences in your user account.

Time Position Orientation Groundspeed Altitude Reporting Facility
EDT Latitude Longitude Course Direction KTS MPH feet Rate Location/Type
07:20AM 42.4667 -71.3167 251° West 288 331 1,000  Level KA90
07:21AM 42.4500 -71.3833 251° West 221 254 2,400 1,740 Climbing KA90
07:22AM 42.3858 -71.4789 228° Southwest 247 284 5,400 2,340 Climbing Boston Center
07:23AM 42.3408 -71.5694 236° Southwest 258 297 8,500 2,940 Climbing Boston Center
07:24AM 42.3414 -71.6536 271° West 253 291 11,200 2,460 Climbing Boston Center
07:25AM 42.3442 -71.7744 272° West 286 329 13,600 1,380 Climbing Boston Center
07:26AM 42.3197 -71.8672 250° West 295 339 14,100 660 Climbing Boston Center
07:27AM 42.2661 -71.9800 237° Southwest 301 346 15,000 420 Climbing Boston Center
07:28AM 42.2164 -72.0897 239° Southwest 336 387 15,000 120 Level Boston Center
07:29AM 42.1689 -72.1936 238° Southwest 346 398 15,300 480 Climbing Boston Center
07:30AM 42.1211 -72.3031 240° Southwest 339 390 16,000 300 Climbing Boston Center
07:31AM 42.0711 -72.4122 238° Southwest 339 390 16,000  Level Boston Center
07:32AM 42.0211 -72.5183 238° Southwest 339 390 16,000  Level Boston Center
07:33AM 41.9772 -72.6133 238° Southwest 339 390 16,000  Level Boston Center
07:34AM 41.9228 -72.7386 240° Southwest 344 396 16,000  Level Boston Center
07:35AM 41.8744 -72.8500 240° Southwest 344 396 16,000 -240 Level Boston Center
07:36AM 41.8325 -72.9472 240° Southwest 344 396 15,600 -600 Descending Boston Center
07:37AM 41.7881 -73.0608 242° Southwest 324 373 14,900 -660 Descending Boston Center
07:38AM 41.7478 -73.1553 240° Southwest 324 373 14,300 -480 Descending Boston Center
07:39AM 41.7014 -73.2658 241° Southwest 324 373 14,000 -180 Descending Boston Center
07:40AM 41.6567 -73.3681 240° Southwest 324 373 14,000  Level Boston Center
07:41AM 41.6164 -73.4592 239° Southwest 319 367 14,000 -120 Level Boston Center
07:42AM 41.5633 -73.5525 233° Southwest 313 360 13,800 -1,080 Descending Boston Center
07:44AM 41.4667 -73.6667 222° Southwest 283 326 11,300 -1,560 Descending New York TRACON
07:45AM 41.4000 -73.7333 217° Southwest 278 320 9,800 -1,440 Descending New York TRACON
07:46AM 41.3500 -73.7833 217° Southwest 283 326 8,600 -1,440 Descending New York TRACON
07:47AM 41.2833 -73.7500 159° South 288 331 7,300 -1,380 Descending New York TRACON
07:48AM 41.2167 -73.6833 143° Southeast 281 323 6,000 -660 Descending New York TRACON
07:49AM 41.1500 -73.6333 151° Southeast 279 321 6,000 -180 Level New York TRACON
07:50AM 41.0833 -73.6333 180° South 274 315 5,700 -900 Descending New York TRACON
07:51AM 41.0167 -73.6667 201° Southwest 263 303 4,400 -1,260 Descending New York TRACON
07:52AM 40.9667 -73.7167 217° Southwest 257 296 3,400 -840 Descending New York TRACON
07:53AM 40.9167 -73.7667 217° Southwest 202 232 2,900 -720 Descending New York TRACON
07:54AM 40.8667 -73.8000 207° Southwest 147 169 2,000 -840 Descending New York TRACON
07:55AM 40.8333 -73.8167 201° Southwest 142 163 1,300 -660 Descending New York TRACON
07:56AM 40.8167 -73.8500 237° Southwest 133 153 700 -600 Descending New York TRACON